sensor_id;sensor_type;location;lat;lon;timestamp;pressure;altitude;pressure_sealevel;temperature;humidity
66703;BME280;60933;46.398;-63.798;2023-04-30T00:02:01;102185.56;;;8.65;53.41
66703;BME280;60933;46.398;-63.798;2023-04-30T00:04:27;102186.34;;;8.57;53.95
66703;BME280;60933;46.398;-63.798;2023-04-30T00:06:53;102190.50;;;8.44;54.06
66703;BME280;60933;46.398;-63.798;2023-04-30T00:09:20;102193.84;;;8.30;53.79
66703;BME280;60933;46.398;-63.798;2023-04-30T00:11:46;102195.50;;;8.19;54.04
66703;BME280;60933;46.398;-63.798;2023-04-30T00:14:12;102194.53;;;8.07;54.36
66703;BME280;60933;46.398;-63.798;2023-04-30T00:16:39;102195.28;;;7.97;54.56
66703;BME280;60933;46.398;-63.798;2023-04-30T00:19:06;102202.03;;;7.86;55.35
66703;BME280;60933;46.398;-63.798;2023-04-30T00:21:33;102203.59;;;7.71;55.05
66703;BME280;60933;46.398;-63.798;2023-04-30T00:23:59;102201.78;;;7.61;55.01
66703;BME280;60933;46.398;-63.798;2023-04-30T00:26:26;102198.25;;;7.50;55.36
66703;BME280;60933;46.398;-63.798;2023-04-30T00:28:52;102204.16;;;7.44;56.03
66703;BME280;60933;46.398;-63.798;2023-04-30T00:31:19;102203.19;;;7.34;56.12
66703;BME280;60933;46.398;-63.798;2023-04-30T00:33:45;102201.28;;;7.18;55.95
66703;BME280;60933;46.398;-63.798;2023-04-30T00:36:12;102202.06;;;7.13;56.96
66703;BME280;60933;46.398;-63.798;2023-04-30T00:38:38;102199.41;;;7.06;56.27
66703;BME280;60933;46.398;-63.798;2023-04-30T00:41:08;102198.44;;;6.96;57.05
66703;BME280;60933;46.398;-63.798;2023-04-30T00:43:35;102194.06;;;6.89;57.41
66703;BME280;60933;46.398;-63.798;2023-04-30T00:46:04;102205.88;;;6.79;56.90
66703;BME280;60933;46.398;-63.798;2023-04-30T00:48:31;102198.91;;;6.69;58.30
66703;BME280;60933;46.398;-63.798;2023-04-30T00:50:57;102210.81;;;6.65;58.54
66703;BME280;60933;46.398;-63.798;2023-04-30T00:53:23;102212.41;;;6.57;58.45
66703;BME280;60933;46.398;-63.798;2023-04-30T00:55:50;102214.91;;;6.52;59.60
66703;BME280;60933;46.398;-63.798;2023-04-30T00:58:17;102215.63;;;6.43;59.43
66703;BME280;60933;46.398;-63.798;2023-04-30T01:00:43;102223.25;;;6.39;60.36
66703;BME280;60933;46.398;-63.798;2023-04-30T01:03:12;102221.44;;;6.33;60.70
66703;BME280;60933;46.398;-63.798;2023-04-30T01:05:39;102224.75;;;6.27;60.98
66703;BME280;60933;46.398;-63.798;2023-04-30T01:08:05;102226.38;;;6.22;61.77
66703;BME280;60933;46.398;-63.798;2023-04-30T01:10:39;102217.72;;;6.15;63.20
66703;BME280;60933;46.398;-63.798;2023-04-30T01:16:33;102214.94;;;6.03;65.50
66703;BME280;60933;46.398;-63.798;2023-04-30T01:22:00;102219.88;;;5.94;66.44
66703;BME280;60933;46.398;-63.798;2023-04-30T01:30:23;102219.59;;;5.80;67.19
66703;BME280;60933;46.398;-63.798;2023-04-30T01:32:50;102212.69;;;5.74;67.01
66703;BME280;60933;46.398;-63.798;2023-04-30T01:35:16;102213.44;;;5.68;67.54
66703;BME280;60933;46.398;-63.798;2023-04-30T01:37:59;102212.50;;;5.65;67.88
66703;BME280;60933;46.398;-63.798;2023-04-30T01:40:56;102209.84;;;5.59;68.60
66703;BME280;60933;46.398;-63.798;2023-04-30T01:46:29;102203.66;;;5.49;67.80
66703;BME280;60933;46.398;-63.798;2023-04-30T01:52:11;102213.66;;;5.38;68.85
66703;BME280;60933;46.398;-63.798;2023-04-30T01:55:26;102211.00;;;5.33;69.36
66703;BME280;60933;46.398;-63.798;2023-04-30T01:57:57;102208.34;;;5.27;69.25
66703;BME280;60933;46.398;-63.798;2023-04-30T02:00:28;102209.03;;;5.20;69.25
66703;BME280;60933;46.398;-63.798;2023-04-30T02:02:58;102208.09;;;5.15;69.13
66703;BME280;60933;46.398;-63.798;2023-04-30T02:05:24;102196.78;;;5.05;69.41
66703;BME280;60933;46.398;-63.798;2023-04-30T02:07:51;102204.41;;;5.03;70.03
66703;BME280;60933;46.398;-63.798;2023-04-30T02:10:20;102199.19;;;4.97;69.80
66703;BME280;60933;46.398;-63.798;2023-04-30T02:12:46;102206.75;;;4.93;69.67
66703;BME280;60933;46.398;-63.798;2023-04-30T02:15:13;102206.63;;;4.86;68.75
66703;BME280;60933;46.398;-63.798;2023-04-30T02:17:39;102209.09;;;4.83;69.61
66703;BME280;60933;46.398;-63.798;2023-04-30T02:20:07;102214.16;;;4.80;69.60
66703;BME280;60933;46.398;-63.798;2023-04-30T02:22:34;102219.16;;;4.74;69.18
66703;BME280;60933;46.398;-63.798;2023-04-30T02:25:00;102221.66;;;4.72;69.26
66703;BME280;60933;46.398;-63.798;2023-04-30T02:27:29;102216.41;;;4.68;68.88
66703;BME280;60933;46.398;-63.798;2023-04-30T02:29:56;102216.34;;;4.63;69.37
66703;BME280;60933;46.398;-63.798;2023-04-30T02:32:22;102217.97;;;4.59;69.74
66703;BME280;60933;46.398;-63.798;2023-04-30T02:34:48;102218.69;;;4.55;69.05
66703;BME280;60933;46.398;-63.798;2023-04-30T02:37:15;102210.69;;;4.41;69.72
66703;BME280;60933;46.398;-63.798;2023-04-30T02:39:41;102231.25;;;4.46;69.62
66703;BME280;60933;46.398;-63.798;2023-04-30T02:42:07;102234.56;;;4.40;69.79
66703;BME280;60933;46.398;-63.798;2023-04-30T02:44:34;102230.19;;;4.38;69.00
66703;BME280;60933;46.398;-63.798;2023-04-30T02:47:00;102232.69;;;4.35;69.12
66703;BME280;60933;46.398;-63.798;2023-04-30T02:49:27;102226.59;;;4.30;68.78
66703;BME280;60933;46.398;-63.798;2023-04-30T02:51:54;102230.81;;;4.27;69.37
66703;BME280;60933;46.398;-63.798;2023-04-30T02:54:20;102229.81;;;4.22;69.43
66703;BME280;60933;46.398;-63.798;2023-04-30T02:56:46;102228.03;;;4.18;69.47
66703;BME280;60933;46.398;-63.798;2023-04-30T02:59:12;102227.94;;;4.15;69.09
66703;BME280;60933;46.398;-63.798;2023-04-30T03:01:39;102228.66;;;4.09;69.96
66703;BME280;60933;46.398;-63.798;2023-04-30T03:04:05;102225.09;;;4.04;69.75
66703;BME280;60933;46.398;-63.798;2023-04-30T03:06:31;102224.13;;;3.99;69.42
66703;BME280;60933;46.398;-63.798;2023-04-30T03:08:58;102224.09;;;3.98;69.69
66703;BME280;60933;46.398;-63.798;2023-04-30T03:11:24;102231.63;;;3.93;69.39
66703;BME280;60933;46.398;-63.798;2023-04-30T03:13:50;102232.41;;;3.90;69.83
66703;BME280;60933;46.398;-63.798;2023-04-30T03:16:18;102229.75;;;3.86;69.12
66703;BME280;60933;46.398;-63.798;2023-04-30T03:18:45;102227.91;;;3.82;69.04
66703;BME280;60933;46.398;-63.798;2023-04-30T03:21:12;102227.72;;;3.74;68.88
66703;BME280;60933;46.398;-63.798;2023-04-30T03:23:38;102235.41;;;3.75;68.73
66703;BME280;60933;46.398;-63.798;2023-04-30T03:26:04;102242.13;;;3.72;68.79
66703;BME280;60933;46.398;-63.798;2023-04-30T03:28:31;102247.13;;;3.69;68.80
66703;BME280;60933;46.398;-63.798;2023-04-30T03:30:57;102245.34;;;3.64;68.76
66703;BME280;60933;46.398;-63.798;2023-04-30T03:33:24;102246.91;;;3.59;68.20
66703;BME280;60933;46.398;-63.798;2023-04-30T03:35:50;102260.50;;;3.58;68.02
66703;BME280;60933;46.398;-63.798;2023-04-30T03:38:17;102252.72;;;3.55;68.07
66703;BME280;60933;46.398;-63.798;2023-04-30T03:40:43;102258.66;;;3.54;67.82
66703;BME280;60933;46.398;-63.798;2023-04-30T03:43:09;102267.06;;;3.50;68.03
66703;BME280;60933;46.398;-63.798;2023-04-30T03:45:35;102263.56;;;3.46;67.99
66703;BME280;60933;46.398;-63.798;2023-04-30T03:48:01;102271.13;;;3.45;67.76
66703;BME280;60933;46.398;-63.798;2023-04-30T03:50:27;102275.38;;;3.43;67.57
66703;BME280;60933;46.398;-63.798;2023-04-30T03:52:53;102272.72;;;3.40;67.38
66703;BME280;60933;46.398;-63.798;2023-04-30T03:55:20;102276.88;;;3.38;67.88
66703;BME280;60933;46.398;-63.798;2023-04-30T03:57:46;102280.22;;;3.35;67.47
66703;BME280;60933;46.398;-63.798;2023-04-30T04:00:13;102276.72;;;3.31;68.16
66703;BME280;60933;46.398;-63.798;2023-04-30T04:02:40;102284.38;;;3.31;68.27
66703;BME280;60933;46.398;-63.798;2023-04-30T04:05:06;102286.03;;;3.29;68.04
66703;BME280;60933;46.398;-63.798;2023-04-30T04:07:32;102276.63;;;3.28;68.26
66703;BME280;60933;46.398;-63.798;2023-04-30T04:09:58;102291.88;;;3.27;67.74
66703;BME280;60933;46.398;-63.798;2023-04-30T04:12:25;102277.94;;;3.15;68.00
66703;BME280;60933;46.398;-63.798;2023-04-30T04:14:51;102284.97;;;3.23;68.13
66703;BME280;60933;46.398;-63.798;2023-04-30T04:17:17;102288.31;;;3.20;68.41
66703;BME280;60933;46.398;-63.798;2023-04-30T04:19:43;102285.59;;;3.15;68.71
66703;BME280;60933;46.398;-63.798;2023-04-30T04:22:09;102289.81;;;3.15;67.80
66703;BME280;60933;46.398;-63.798;2023-04-30T04:24:35;102293.94;;;3.10;68.22
66703;BME280;60933;46.398;-63.798;2023-04-30T04:27:03;102293.13;;;3.11;68.07
66703;BME280;60933;46.398;-63.798;2023-04-30T04:29:30;102298.09;;;3.08;68.05
66703;BME280;60933;46.398;-63.798;2023-04-30T04:31:56;102301.41;;;3.04;68.14
66703;BME280;60933;46.398;-63.798;2023-04-30T04:34:24;102302.19;;;3.01;68.79
66703;BME280;60933;46.398;-63.798;2023-04-30T04:36:51;102300.41;;;2.98;68.88
66703;BME280;60933;46.398;-63.798;2023-04-30T04:39:17;102283.09;;;2.90;69.10
66703;BME280;60933;46.398;-63.798;2023-04-30T04:41:43;102281.47;;;2.92;68.88
66703;BME280;60933;46.398;-63.798;2023-04-30T04:44:09;102269.41;;;2.88;69.00
66703;BME280;60933;46.398;-63.798;2023-04-30T04:46:36;102260.00;;;2.85;68.96
66703;BME280;60933;46.398;-63.798;2023-04-30T04:49:07;102260.75;;;2.82;69.52
66703;BME280;60933;46.398;-63.798;2023-04-30T04:51:33;102251.34;;;2.80;68.75
66703;BME280;60933;46.398;-63.798;2023-04-30T04:53:59;102252.06;;;2.76;69.75
66703;BME280;60933;46.398;-63.798;2023-04-30T04:56:26;102247.78;;;2.75;69.87
66703;BME280;60933;46.398;-63.798;2023-04-30T04:58:52;102230.56;;;2.67;69.73
66703;BME280;60933;46.398;-63.798;2023-04-30T05:01:18;102244.19;;;2.69;69.72
66703;BME280;60933;46.398;-63.798;2023-04-30T05:03:44;102238.13;;;2.66;70.47
66703;BME280;60933;46.398;-63.798;2023-04-30T05:06:10;102232.06;;;2.62;70.08
66703;BME280;60933;46.398;-63.798;2023-04-30T05:08:36;102236.22;;;2.59;70.46
66703;BME280;60933;46.398;-63.798;2023-04-30T05:11:03;102240.34;;;2.55;69.38
66703;BME280;60933;46.398;-63.798;2023-04-30T05:13:29;102229.16;;;2.50;70.48
66703;BME280;60933;46.398;-63.798;2023-04-30T05:15:55;102219.66;;;2.46;69.74
66703;BME280;60933;46.398;-63.798;2023-04-30T05:18:21;102216.13;;;2.42;69.64
66703;BME280;60933;46.398;-63.798;2023-04-30T05:20:47;102217.72;;;2.38;70.03
66703;BME280;60933;46.398;-63.798;2023-04-30T05:23:14;102223.66;;;2.37;70.02
66703;BME280;60933;46.398;-63.798;2023-04-30T05:25:40;102221.00;;;2.34;69.88
66703;BME280;60933;46.398;-63.798;2023-04-30T05:28:06;102219.25;;;2.33;70.45
66703;BME280;60933;46.398;-63.798;2023-04-30T05:30:32;102214.03;;;2.30;70.11
66703;BME280;60933;46.398;-63.798;2023-04-30T05:32:59;102214.81;;;2.28;69.63
66703;BME280;60933;46.398;-63.798;2023-04-30T05:35:25;102196.78;;;2.21;70.12
66703;BME280;60933;46.398;-63.798;2023-04-30T05:37:51;102196.81;;;2.23;70.18
66703;BME280;60933;46.398;-63.798;2023-04-30T05:40:17;102191.66;;;2.20;70.07
66703;BME280;60933;46.398;-63.798;2023-04-30T05:42:43;102184.69;;;2.16;69.25
66703;BME280;60933;46.398;-63.798;2023-04-30T05:45:10;102186.34;;;2.14;70.18
66703;BME280;60933;46.398;-63.798;2023-04-30T05:47:39;102182.06;;;2.13;70.35
66703;BME280;60933;46.398;-63.798;2023-04-30T05:50:06;102173.50;;;2.11;69.49
66703;BME280;60933;46.398;-63.798;2023-04-30T05:52:32;102163.16;;;2.06;67.72
66703;BME280;60933;46.398;-63.798;2023-04-30T05:54:58;102169.94;;;2.05;68.28
66703;BME280;60933;46.398;-63.798;2023-04-30T05:57:25;102164.84;;;2.05;68.44
66703;BME280;60933;46.398;-63.798;2023-04-30T05:59:51;102164.69;;;2.01;69.28
66703;BME280;60933;46.398;-63.798;2023-04-30T06:02:18;102160.44;;;2.01;68.80
66703;BME280;60933;46.398;-63.798;2023-04-30T06:04:44;102161.22;;;1.99;69.45
66703;BME280;60933;46.398;-63.798;2023-04-30T06:07:10;102165.47;;;1.98;68.40
66703;BME280;60933;46.398;-63.798;2023-04-30T06:09:37;102158.56;;;1.96;68.90
66703;BME280;60933;46.398;-63.798;2023-04-30T06:12:04;102150.88;;;1.94;68.87
66703;BME280;60933;46.398;-63.798;2023-04-30T06:14:30;102155.03;;;1.92;68.96
66703;BME280;60933;46.398;-63.798;2023-04-30T06:16:56;102150.78;;;1.91;68.61
66703;BME280;60933;46.398;-63.798;2023-04-30T06:19:22;102151.50;;;1.87;68.32
66703;BME280;60933;46.398;-63.798;2023-04-30T06:21:48;102143.03;;;1.88;68.27
66703;BME280;60933;46.398;-63.798;2023-04-30T06:24:15;102133.66;;;1.87;68.22
66703;BME280;60933;46.398;-63.798;2023-04-30T06:26:41;102136.22;;;1.87;68.40
66703;BME280;60933;46.398;-63.798;2023-04-30T06:29:07;102131.03;;;1.84;68.25
66703;BME280;60933;46.398;-63.798;2023-04-30T06:31:33;102119.09;;;1.83;68.74
66703;BME280;60933;46.398;-63.798;2023-04-30T06:33:59;102112.28;;;1.82;68.03
66703;BME280;60933;46.398;-63.798;2023-04-30T06:36:25;102114.75;;;1.80;68.83
66703;BME280;60933;46.398;-63.798;2023-04-30T06:38:52;102107.06;;;1.79;67.35
66703;BME280;60933;46.398;-63.798;2023-04-30T06:41:18;102106.91;;;1.74;67.65
66703;BME280;60933;46.398;-63.798;2023-04-30T06:43:44;102108.66;;;1.75;68.03
66703;BME280;60933;46.398;-63.798;2023-04-30T06:46:10;102107.72;;;1.73;68.00
66703;BME280;60933;46.398;-63.798;2023-04-30T06:48:36;102106.84;;;1.71;68.50
66703;BME280;60933;46.398;-63.798;2023-04-30T06:51:02;102100.78;;;1.67;68.84
66703;BME280;60933;46.398;-63.798;2023-04-30T06:53:28;102098.88;;;1.62;68.41
66703;BME280;60933;46.398;-63.798;2023-04-30T06:55:54;102098.00;;;1.61;68.54
66703;BME280;60933;46.398;-63.798;2023-04-30T06:58:21;102107.22;;;1.57;67.69
66703;BME280;60933;46.398;-63.798;2023-04-30T07:00:47;102101.16;;;1.54;68.38
66703;BME280;60933;46.398;-63.798;2023-04-30T07:03:13;102108.66;;;1.49;69.15
66703;BME280;60933;46.398;-63.798;2023-04-30T07:05:39;102106.00;;;1.46;68.88
66703;BME280;60933;46.398;-63.798;2023-04-30T07:08:06;102109.28;;;1.44;69.02
66703;BME280;60933;46.398;-63.798;2023-04-30T07:10:32;102118.50;;;1.40;68.10
66703;BME280;60933;46.398;-63.798;2023-04-30T07:12:58;102104.81;;;1.36;67.43
66703;BME280;60933;46.398;-63.798;2023-04-30T07:15:25;102097.81;;;1.31;68.14
66703;BME280;60933;46.398;-63.798;2023-04-30T07:17:51;102090.13;;;1.29;68.33
66703;BME280;60933;46.398;-63.798;2023-04-30T07:20:17;102096.81;;;1.25;68.67
66703;BME280;60933;46.398;-63.798;2023-04-30T07:22:43;102084.81;;;1.23;68.21
66703;BME280;60933;46.398;-63.798;2023-04-30T07:25:11;102080.31;;;1.16;69.53
66703;BME280;60933;46.398;-63.798;2023-04-30T07:27:38;102069.25;;;1.14;70.64
66703;BME280;60933;46.398;-63.798;2023-04-30T07:30:05;102081.97;;;1.14;70.17
66703;BME280;60933;46.398;-63.798;2023-04-30T07:32:34;102076.75;;;1.10;69.69
66703;BME280;60933;46.398;-63.798;2023-04-30T07:35:00;102079.19;;;1.07;68.92
66703;BME280;60933;46.398;-63.798;2023-04-30T07:37:26;102077.47;;;1.06;68.55
66703;BME280;60933;46.398;-63.798;2023-04-30T07:39:52;102078.16;;;1.02;68.42
66703;BME280;60933;46.398;-63.798;2023-04-30T07:42:18;102074.69;;;1.00;68.81
66703;BME280;60933;46.398;-63.798;2023-04-30T07:44:44;102083.03;;;0.96;68.70
66703;BME280;60933;46.398;-63.798;2023-04-30T07:47:10;102067.66;;;0.93;68.36
66703;BME280;60933;46.398;-63.798;2023-04-30T07:49:37;102070.94;;;0.90;68.21
66703;BME280;60933;46.398;-63.798;2023-04-30T07:52:03;102077.66;;;0.88;67.50
66703;BME280;60933;46.398;-63.798;2023-04-30T07:54:30;102082.63;;;0.85;67.76
66703;BME280;60933;46.398;-63.798;2023-04-30T07:56:56;102086.75;;;0.82;67.59
66703;BME280;60933;46.398;-63.798;2023-04-30T07:59:22;102099.31;;;0.78;66.93
66703;BME280;60933;46.398;-63.798;2023-04-30T08:01:50;102098.28;;;0.73;67.65
66703;BME280;60933;46.398;-63.798;2023-04-30T08:04:16;102101.50;;;0.69;67.53
66703;BME280;60933;46.398;-63.798;2023-04-30T08:06:44;102108.16;;;0.66;66.52
66703;BME280;60933;46.398;-63.798;2023-04-30T08:09:10;102100.38;;;0.61;66.76
66703;BME280;60933;46.398;-63.798;2023-04-30T08:11:36;102101.06;;;0.57;66.05
66703;BME280;60933;46.398;-63.798;2023-04-30T08:14:02;102092.28;;;0.49;67.42
66703;BME280;60933;46.398;-63.798;2023-04-30T08:16:29;102095.63;;;0.47;66.59
66703;BME280;60933;46.398;-63.798;2023-04-30T08:18:55;102103.13;;;0.44;66.88
66703;BME280;60933;46.398;-63.798;2023-04-30T08:21:21;102103.81;;;0.40;66.48
66703;BME280;60933;46.398;-63.798;2023-04-30T08:23:47;102109.50;;;0.35;65.89
66703;BME280;60933;46.398;-63.798;2023-04-30T08:26:14;102115.47;;;0.35;65.78
66703;BME280;60933;46.398;-63.798;2023-04-30T08:28:40;102121.22;;;0.31;65.60
66703;BME280;60933;46.398;-63.798;2023-04-30T08:31:07;102124.47;;;0.27;65.81
66703;BME280;60933;46.398;-63.798;2023-04-30T08:33:33;102126.88;;;0.24;65.84
66703;BME280;60933;46.398;-63.798;2023-04-30T08:35:59;102130.91;;;0.19;66.14
66703;BME280;60933;46.398;-63.798;2023-04-30T08:38:25;102125.63;;;0.14;65.89
66703;BME280;60933;46.398;-63.798;2023-04-30T08:41:21;102122.91;;;0.09;65.91
66703;BME280;60933;46.398;-63.798;2023-04-30T08:43:52;102112.66;;;0.06;66.67
66703;BME280;60933;46.398;-63.798;2023-04-30T08:46:22;102121.81;;;0.03;66.17
66703;BME280;60933;46.398;-63.798;2023-04-30T08:48:49;102124.97;;;-0.03;66.76
66703;BME280;60933;46.398;-63.798;2023-04-30T08:51:15;102125.72;;;-0.06;67.35
66703;BME280;60933;46.398;-63.798;2023-04-30T08:53:41;102120.44;;;-0.10;67.26
66703;BME280;60933;46.398;-63.798;2023-04-30T08:56:10;102133.19;;;-0.09;67.08
66703;BME280;60933;46.398;-63.798;2023-04-30T08:58:36;102136.47;;;-0.11;67.88
66703;BME280;60933;46.398;-63.798;2023-04-30T09:01:02;102130.53;;;-0.12;67.76
66703;BME280;60933;46.398;-63.798;2023-04-30T09:03:30;102111.84;;;-0.14;68.20
66703;BME280;60933;46.398;-63.798;2023-04-30T09:05:56;102082.91;;;-0.18;70.19
66703;BME280;60933;46.398;-63.798;2023-04-30T09:08:43;102096.66;;;-0.12;69.69
66703;BME280;60933;46.398;-63.798;2023-04-30T09:11:26;102114.41;;;-0.12;69.52
66703;BME280;60933;46.398;-63.798;2023-04-30T09:14:00;102121.09;;;-0.14;69.21
66703;BME280;60933;46.398;-63.798;2023-04-30T09:16:50;102121.00;;;-0.18;68.35
66703;BME280;60933;46.398;-63.798;2023-04-30T09:19:29;102122.59;;;-0.20;67.86
66703;BME280;60933;46.398;-63.798;2023-04-30T09:21:56;102129.34;;;-0.20;68.31
66703;BME280;60933;46.398;-63.798;2023-04-30T09:24:23;102131.81;;;-0.22;68.17
66703;BME280;60933;46.398;-63.798;2023-04-30T09:26:50;102144.56;;;-0.20;67.56
66703;BME280;60933;46.398;-63.798;2023-04-30T09:29:16;102152.09;;;-0.22;68.57
66703;BME280;60933;46.398;-63.798;2023-04-30T09:31:46;102150.50;;;-0.20;68.13
66703;BME280;60933;46.398;-63.798;2023-04-30T09:34:12;102142.16;;;-0.17;67.61
66703;BME280;60933;46.398;-63.798;2023-04-30T09:36:56;102137.97;;;-0.17;67.67
66703;BME280;60933;46.398;-63.798;2023-04-30T09:39:23;102131.38;;;-0.11;67.32
66703;BME280;60933;46.398;-63.798;2023-04-30T09:41:52;102125.63;;;-0.07;65.90
66703;BME280;60933;46.398;-63.798;2023-04-30T09:44:29;102131.53;;;-0.08;67.18
66703;BME280;60933;46.398;-63.798;2023-04-30T09:46:56;102137.91;;;0.03;67.86
66703;BME280;60933;46.398;-63.798;2023-04-30T09:49:23;102138.16;;;0.09;67.08
66703;BME280;60933;46.398;-63.798;2023-04-30T09:51:59;102141.75;;;0.14;68.15
66703;BME280;60933;46.398;-63.798;2023-04-30T09:54:28;102133.50;;;0.20;66.99
66703;BME280;60933;46.398;-63.798;2023-04-30T09:56:56;102123.47;;;0.23;67.79
66703;BME280;60933;46.398;-63.798;2023-04-30T09:59:29;102125.50;;;0.32;67.42
66703;BME280;60933;46.398;-63.798;2023-04-30T10:01:58;102121.59;;;0.40;67.28
66703;BME280;60933;46.398;-63.798;2023-04-30T10:04:33;102121.03;;;0.47;66.91
66703;BME280;60933;46.398;-63.798;2023-04-30T10:07:03;102111.22;;;0.57;67.26
66703;BME280;60933;46.398;-63.798;2023-04-30T10:09:44;102121.97;;;0.72;67.90
66703;BME280;60933;46.398;-63.798;2023-04-30T10:12:17;102124.94;;;0.83;68.71
66703;BME280;60933;46.398;-63.798;2023-04-30T10:14:54;102128.66;;;0.93;68.37
66703;BME280;60933;46.398;-63.798;2023-04-30T10:17:26;102129.91;;;1.03;67.42
66703;BME280;60933;46.398;-63.798;2023-04-30T10:19:57;102133.81;;;1.17;69.24
66703;BME280;60933;46.398;-63.798;2023-04-30T10:22:29;102127.25;;;1.24;68.34
66703;BME280;60933;46.398;-63.798;2023-04-30T10:24:55;102141.31;;;1.38;69.84
66703;BME280;60933;46.398;-63.798;2023-04-30T10:27:22;102144.28;;;1.49;69.26
66703;BME280;60933;46.398;-63.798;2023-04-30T10:29:49;102150.56;;;1.59;70.41
66703;BME280;60933;46.398;-63.798;2023-04-30T10:32:17;102162.88;;;1.72;69.28
66703;BME280;60933;46.398;-63.798;2023-04-30T10:37:54;102168.81;;;1.97;69.13
66703;BME280;60933;46.398;-63.798;2023-04-30T10:40:25;102184.81;;;2.19;68.82
66703;BME280;60933;46.398;-63.798;2023-04-30T10:42:53;102179.25;;;2.31;68.65
66703;BME280;60933;46.398;-63.798;2023-04-30T10:45:36;102173.69;;;2.43;68.89
66703;BME280;60933;46.398;-63.798;2023-04-30T10:48:03;102181.81;;;2.58;67.39
66703;BME280;60933;46.398;-63.798;2023-04-30T10:50:30;102185.69;;;2.74;68.36
66703;BME280;60933;46.398;-63.798;2023-04-30T10:53:03;102184.28;;;2.84;67.74
66703;BME280;60933;46.398;-63.798;2023-04-30T10:55:30;102194.97;;;2.99;67.58
66703;BME280;60933;46.398;-63.798;2023-04-30T10:57:57;102197.88;;;3.12;67.24
66703;BME280;60933;46.398;-63.798;2023-04-30T11:00:28;102197.28;;;3.21;67.98
66703;BME280;60933;46.398;-63.798;2023-04-30T11:03:02;102194.22;;;3.32;68.37
66703;BME280;60933;46.398;-63.798;2023-04-30T11:05:38;102197.97;;;3.44;68.24
66703;BME280;60933;46.398;-63.798;2023-04-30T11:08:05;102192.19;;;3.51;67.57
66703;BME280;60933;46.398;-63.798;2023-04-30T11:10:35;102196.00;;;3.66;67.83
66703;BME280;60933;46.398;-63.798;2023-04-30T11:13:06;102193.78;;;3.79;67.47
66703;BME280;60933;46.398;-63.798;2023-04-30T11:15:40;102186.53;;;3.95;69.19
66703;BME280;60933;46.398;-63.798;2023-04-30T11:18:07;102170.69;;;4.08;68.08
66703;BME280;60933;46.398;-63.798;2023-04-30T11:20:39;102166.78;;;4.23;68.11
66703;BME280;60933;46.398;-63.798;2023-04-30T11:25:44;102167.53;;;4.55;66.97
66703;BME280;60933;46.398;-63.798;2023-04-30T11:28:13;102161.88;;;4.69;65.69
66703;BME280;60933;46.398;-63.798;2023-04-30T11:33:18;102163.44;;;5.02;66.34
66703;BME280;60933;46.398;-63.798;2023-04-30T11:35:45;102162.84;;;5.14;67.43
66703;BME280;60933;46.398;-63.798;2023-04-30T11:38:14;102166.63;;;5.31;67.59
66703;BME280;60933;46.398;-63.798;2023-04-30T11:40:43;102166.00;;;5.43;66.84
66703;BME280;60933;46.398;-63.798;2023-04-30T11:43:20;102159.38;;;5.56;66.29
66703;BME280;60933;46.398;-63.798;2023-04-30T11:48:36;102192.63;;;5.99;67.43
66703;BME280;60933;46.398;-63.798;2023-04-30T11:51:14;102196.38;;;6.16;66.57
66703;BME280;60933;46.398;-63.798;2023-04-30T11:53:40;102201.75;;;6.32;63.96
66703;BME280;60933;46.398;-63.798;2023-04-30T11:56:07;102200.31;;;6.49;64.63
66703;BME280;60933;46.398;-63.798;2023-04-30T11:58:36;102210.84;;;6.68;63.76
66703;BME280;60933;46.398;-63.798;2023-04-30T12:01:05;102205.03;;;6.80;64.73
66703;BME280;60933;46.398;-63.798;2023-04-30T12:03:38;102206.16;;;6.99;64.45
66703;BME280;60933;46.398;-63.798;2023-04-30T12:06:05;102209.00;;;7.21;63.78
66703;BME280;60933;46.398;-63.798;2023-04-30T12:08:31;102203.25;;;7.39;63.44
66703;BME280;60933;46.398;-63.798;2023-04-30T12:10:57;102206.00;;;7.56;63.07
66703;BME280;60933;46.398;-63.798;2023-04-30T12:13:23;102201.03;;;7.71;62.81
66703;BME280;60933;46.398;-63.798;2023-04-30T12:15:59;102202.94;;;7.88;63.84
66703;BME280;60933;46.398;-63.798;2023-04-30T12:18:26;102192.75;;;8.02;62.89
66703;BME280;60933;46.398;-63.798;2023-04-30T12:20:52;102195.50;;;8.19;61.88
66703;BME280;60933;46.398;-63.798;2023-04-30T12:23:19;102182.69;;;8.28;61.52
66703;BME280;60933;46.398;-63.798;2023-04-30T12:25:46;102176.75;;;8.38;61.18
66703;BME280;60933;46.398;-63.798;2023-04-30T12:28:12;102172.50;;;8.44;60.11
66703;BME280;60933;46.398;-63.798;2023-04-30T12:30:38;102166.50;;;8.45;60.36
66703;BME280;60933;46.398;-63.798;2023-04-30T12:33:04;102169.16;;;8.51;60.73
66703;BME280;60933;46.398;-63.798;2023-04-30T12:35:31;102164.88;;;8.54;60.73
66703;BME280;60933;46.398;-63.798;2023-04-30T12:38:05;102172.72;;;8.65;60.50
66703;BME280;60933;46.398;-63.798;2023-04-30T12:40:32;102174.47;;;8.76;60.30
66703;BME280;60933;46.398;-63.798;2023-04-30T12:43:06;102176.25;;;8.86;60.46
66703;BME280;60933;46.398;-63.798;2023-04-30T12:45:51;102175.44;;;8.99;59.84
66703;BME280;60933;46.398;-63.798;2023-04-30T12:48:20;102177.22;;;9.10;59.71
66703;BME280;60933;46.398;-63.798;2023-04-30T12:51:00;102185.81;;;9.15;59.51
66703;BME280;60933;46.398;-63.798;2023-04-30T12:53:27;102190.16;;;9.21;59.53
66703;BME280;60933;46.398;-63.798;2023-04-30T12:56:26;102182.44;;;9.31;59.11
66703;BME280;60933;46.398;-63.798;2023-04-30T12:58:52;102177.31;;;9.44;59.06
66703;BME280;60933;46.398;-63.798;2023-04-30T13:01:20;102172.22;;;9.59;59.18
66703;BME280;60933;46.398;-63.798;2023-04-30T13:03:48;102167.97;;;9.81;58.49
66703;BME280;60933;46.398;-63.798;2023-04-30T13:06:14;102159.38;;;10.03;58.45
66703;BME280;60933;46.398;-63.798;2023-04-30T13:08:41;102164.53;;;10.26;56.51
66703;BME280;60933;46.398;-63.798;2023-04-30T13:11:07;102163.66;;;10.50;55.46
66703;BME280;60933;46.398;-63.798;2023-04-30T13:13:33;102156.78;;;10.65;54.57